createdAt,value
2018-01-13T00:02:13.864Z,18.10
2018-01-13T00:04:41.319Z,19.10
2018-01-13T00:07:08.778Z,17.40
2018-01-13T00:09:36.239Z,18.67
2018-01-13T00:12:03.708Z,16.47
2018-01-13T00:14:31.175Z,18.83
2018-01-13T00:16:58.647Z,17.23
2018-01-13T00:19:26.090Z,17.10
2018-01-13T00:21:53.576Z,15.80
2018-01-13T00:24:21.063Z,16.20
2018-01-13T00:26:48.535Z,16.80
2018-01-13T00:29:15.998Z,15.00
2018-01-13T00:31:43.446Z,15.20
2018-01-13T00:34:10.918Z,14.43
2018-01-13T00:36:38.395Z,14.30
2018-01-13T00:39:05.858Z,14.00
2018-01-13T00:41:33.302Z,16.63
2018-01-13T00:44:00.790Z,14.93
2018-01-13T00:46:28.268Z,15.10
2018-01-13T00:48:55.734Z,14.03
2018-01-13T00:51:23.187Z,14.03
2018-01-13T00:53:50.686Z,14.30
2018-01-13T00:56:18.156Z,15.93
2018-01-13T00:58:45.655Z,13.53
2018-01-13T01:01:13.122Z,12.47
2018-01-13T01:03:40.617Z,14.43
2018-01-13T01:06:08.127Z,13.57
2018-01-13T01:08:35.587Z,15.37
2018-01-13T01:11:03.064Z,15.13
2018-01-13T01:13:30.515Z,13.30
2018-01-13T01:15:58.006Z,15.27
2018-01-13T01:18:25.491Z,17.57
2018-01-13T01:20:52.948Z,18.50
2018-01-13T01:23:20.418Z,17.50
2018-01-13T01:25:47.876Z,18.63
2018-01-13T01:28:15.427Z,17.67
2018-01-13T01:30:42.888Z,17.00
2018-01-13T01:33:10.374Z,14.40
2018-01-13T01:35:37.846Z,17.07
2018-01-13T01:38:05.302Z,15.27
2018-01-13T01:40:32.816Z,14.87
2018-01-13T01:43:00.267Z,16.90
2018-01-13T01:45:27.750Z,16.20
2018-01-13T01:47:55.208Z,17.77
2018-01-13T01:50:22.698Z,17.90
2018-01-13T01:52:50.155Z,17.57
2018-01-13T01:55:17.622Z,18.87
2018-01-13T01:57:45.079Z,17.03
2018-01-13T02:00:12.559Z,17.67
2018-01-13T02:02:40.016Z,15.57
2018-01-13T02:05:07.494Z,18.17
2018-01-13T02:07:34.955Z,18.50
2018-01-13T02:10:02.420Z,16.00
2018-01-13T02:12:29.894Z,18.30
2018-01-13T02:14:57.406Z,17.80
2018-01-13T02:17:24.876Z,19.23
2018-01-13T02:19:52.323Z,18.00
2018-01-13T02:22:19.786Z,17.83
2018-01-13T02:24:47.313Z,15.47
2018-01-13T02:27:14.763Z,17.17
2018-01-13T02:29:42.233Z,16.60
2018-01-13T02:32:09.716Z,15.27
2018-01-13T02:34:37.215Z,17.23
2018-01-13T02:37:04.667Z,15.20
2018-01-13T02:39:32.130Z,15.27
2018-01-13T02:41:59.604Z,16.03
2018-01-13T02:44:27.173Z,18.07
2018-01-13T02:46:54.638Z,18.27
2018-01-13T02:49:22.091Z,18.77
2018-01-13T02:51:49.586Z,19.10
2018-01-13T02:54:17.039Z,16.70
2018-01-13T02:56:44.511Z,17.90
2018-01-13T02:59:11.967Z,18.27
2018-01-13T03:01:39.443Z,17.07
2018-01-13T03:04:06.904Z,17.00
2018-01-13T03:06:34.373Z,19.03
2018-01-13T03:09:01.844Z,18.13
2018-01-13T03:11:29.320Z,17.30
2018-01-13T03:13:56.786Z,17.90
2018-01-13T03:16:24.254Z,17.13
2018-01-13T03:18:51.711Z,18.00
2018-01-13T03:21:19.181Z,16.40
2018-01-13T03:23:46.643Z,15.93
2018-01-13T03:26:14.115Z,16.70
2018-01-13T03:28:41.564Z,17.53
2018-01-13T03:31:09.029Z,16.23
2018-01-13T03:33:36.486Z,15.93
2018-01-13T03:36:03.946Z,16.20
2018-01-13T03:38:31.497Z,19.17
2018-01-13T03:40:58.979Z,18.93
2018-01-13T03:43:26.437Z,21.40
2018-01-13T03:45:53.907Z,20.80
2018-01-13T03:48:21.379Z,21.57
2018-01-13T03:50:48.858Z,20.47
2018-01-13T03:53:16.332Z,20.40
2018-01-13T03:55:43.806Z,19.80
2018-01-13T03:58:11.278Z,19.33
2018-01-13T04:00:38.726Z,21.57
2018-01-13T04:03:06.205Z,22.50
2018-01-13T04:05:33.655Z,22.07
2018-01-13T04:08:01.118Z,21.90
2018-01-13T04:10:28.591Z,21.30
2018-01-13T04:12:56.063Z,20.60
2018-01-13T04:15:23.520Z,21.60
2018-01-13T04:17:51.003Z,21.43
2018-01-13T04:20:18.451Z,21.27
2018-01-13T04:22:45.943Z,20.50
2018-01-13T04:25:13.396Z,17.87
2018-01-13T04:27:40.887Z,20.73
2018-01-13T04:30:08.375Z,20.10
2018-01-13T04:32:35.839Z,21.83
2018-01-13T04:35:03.295Z,21.77
2018-01-13T04:37:30.773Z,23.27
2018-01-13T04:39:58.231Z,21.77
2018-01-13T04:42:25.694Z,23.87
2018-01-13T04:44:53.160Z,23.80
2018-01-13T04:47:20.630Z,21.87
2018-01-13T04:49:48.091Z,23.30
2018-01-13T04:52:15.561Z,22.40
2018-01-13T04:54:43.071Z,20.07
2018-01-13T04:57:10.558Z,21.20
2018-01-13T04:59:38.020Z,22.00
2018-01-13T05:02:05.504Z,19.77
2018-01-13T05:04:32.959Z,20.73
2018-01-13T05:07:00.420Z,22.20
2018-01-13T05:09:27.883Z,22.37
2018-01-13T05:11:55.353Z,20.50
2018-01-13T05:14:22.886Z,20.33
2018-01-13T05:16:50.344Z,20.07
2018-01-13T05:19:17.799Z,18.87
2018-01-13T05:21:45.270Z,20.20
2018-01-13T05:24:12.730Z,18.40
2018-01-13T05:26:40.183Z,17.73
2018-01-13T05:29:07.646Z,17.23
2018-01-13T05:31:35.096Z,19.33
2018-01-13T05:34:02.576Z,19.03
2018-01-13T05:36:30.028Z,21.97
2018-01-13T05:38:57.506Z,20.23
2018-01-13T05:41:24.977Z,22.23
2018-01-13T05:43:52.425Z,21.00
2018-01-13T05:46:19.946Z,22.57
2018-01-13T05:48:47.403Z,21.23
2018-01-13T05:51:14.870Z,21.93
2018-01-13T05:53:42.343Z,20.20
2018-01-13T05:56:09.805Z,19.67
2018-01-13T05:58:37.297Z,17.00
2018-01-13T06:01:04.759Z,20.40
2018-01-13T06:03:32.222Z,20.23
2018-01-13T06:05:59.667Z,21.67
2018-01-13T06:08:27.130Z,21.17
2018-01-13T06:10:54.587Z,20.87
2018-01-13T06:13:22.051Z,18.93
2018-01-13T06:15:49.524Z,19.70
2018-01-13T06:18:16.996Z,22.60
2018-01-13T06:20:44.473Z,22.23
2018-01-13T06:23:11.919Z,21.90
2018-01-13T06:25:39.386Z,20.50
2018-01-13T06:28:06.839Z,18.10
2018-01-13T06:30:34.327Z,18.80
2018-01-13T06:33:01.970Z,18.60
2018-01-13T06:35:29.438Z,16.33
2018-01-13T06:37:56.899Z,15.03
2018-01-13T06:40:24.382Z,16.63
2018-01-13T06:42:52.007Z,16.77
2018-01-13T06:45:19.467Z,19.03
2018-01-13T06:47:46.943Z,15.97
2018-01-13T06:50:14.403Z,17.93
2018-01-13T06:52:41.862Z,17.73
2018-01-13T06:55:09.366Z,18.30
2018-01-13T06:57:36.820Z,17.50
2018-01-13T07:00:04.302Z,17.57
2018-01-13T07:02:31.770Z,19.00
2018-01-13T07:04:59.238Z,18.83
2018-01-13T07:07:26.704Z,16.93
2018-01-13T07:09:54.155Z,16.33
2018-01-13T07:12:21.623Z,17.37
2018-01-13T07:14:49.106Z,17.30
2018-01-13T07:17:16.577Z,15.40
2018-01-13T07:19:44.042Z,16.60
2018-01-13T07:22:11.516Z,15.83
2018-01-13T07:24:38.971Z,15.17
2018-01-13T07:27:06.521Z,16.07
2018-01-13T07:29:33.983Z,14.73
2018-01-13T07:32:01.446Z,15.57
2018-01-13T07:34:28.919Z,14.87
2018-01-13T07:36:56.386Z,14.67
2018-01-13T07:39:23.861Z,13.83
2018-01-13T07:41:51.338Z,15.13
2018-01-13T07:44:18.783Z,15.23
2018-01-13T07:46:46.244Z,14.67
2018-01-13T07:49:13.714Z,12.97
2018-01-13T07:51:41.158Z,16.67
2018-01-13T07:54:08.647Z,14.50
2018-01-13T07:56:36.100Z,16.50
2018-01-13T07:59:03.582Z,14.90
2018-01-13T08:01:31.030Z,13.83
2018-01-13T08:03:58.500Z,13.73
2018-01-13T08:06:25.975Z,13.60
2018-01-13T08:08:53.446Z,14.23
2018-01-13T08:11:21.034Z,14.83
2018-01-13T08:13:48.491Z,13.83
2018-01-13T08:16:15.967Z,14.60
2018-01-13T08:18:43.426Z,16.50
2018-01-13T08:21:10.895Z,15.00
2018-01-13T08:23:38.338Z,15.47
2018-01-13T08:26:05.817Z,13.30
2018-01-13T08:28:33.285Z,15.03
2018-01-13T08:31:00.751Z,14.00
2018-01-13T08:33:28.513Z,15.00
2018-01-13T08:35:55.959Z,13.20
2018-01-13T08:38:23.452Z,12.83
2018-01-13T08:40:51.068Z,14.43
2018-01-13T08:43:18.545Z,14.40
2018-01-13T08:45:46.003Z,15.70
2018-01-13T08:48:13.485Z,14.93
2018-01-13T08:50:40.957Z,15.60
2018-01-13T08:53:08.430Z,14.47
2018-01-13T08:55:35.909Z,14.60
2018-01-13T08:58:03.366Z,15.30
2018-01-13T09:00:30.841Z,14.60
2018-01-13T09:02:58.292Z,16.27
2018-01-13T09:05:25.777Z,13.53
2018-01-13T09:07:53.335Z,15.67
2018-01-13T09:10:20.803Z,15.10
2018-01-13T09:12:48.283Z,15.10
2018-01-13T09:15:15.740Z,15.23
2018-01-13T09:17:43.211Z,16.63
2018-01-13T09:20:10.700Z,14.80
2018-01-13T09:22:38.166Z,14.07
2018-01-13T09:25:05.629Z,15.03
2018-01-13T09:27:33.110Z,15.53
2018-01-13T09:30:00.567Z,16.17
2018-01-13T09:32:28.042Z,15.23
2018-01-13T09:34:55.511Z,15.13
2018-01-13T09:37:22.966Z,14.07
2018-01-13T09:39:50.457Z,16.27
2018-01-13T09:42:17.915Z,17.10
2018-01-13T09:44:45.383Z,16.33
2018-01-13T09:47:12.830Z,16.10
2018-01-13T09:49:40.294Z,18.20
2018-01-13T09:52:07.751Z,18.20
2018-01-13T09:54:35.271Z,16.63
2018-01-13T09:57:02.715Z,16.73
2018-01-13T09:59:30.174Z,17.20
2018-01-13T10:01:57.643Z,17.73
2018-01-13T10:04:25.150Z,15.50
2018-01-13T10:06:52.616Z,16.57
2018-01-13T10:09:20.078Z,15.60
2018-01-13T10:11:47.547Z,16.80
2018-01-13T10:14:15.036Z,15.70
2018-01-13T10:16:42.512Z,17.87
2018-01-13T10:19:09.972Z,15.30
2018-01-13T10:21:37.442Z,14.77
2018-01-13T10:24:04.930Z,15.90
2018-01-13T10:26:32.378Z,16.60
2018-01-13T10:28:59.873Z,16.80
2018-01-13T10:31:27.341Z,15.67
2018-01-13T10:33:54.808Z,17.57
2018-01-13T10:36:22.255Z,17.67
2018-01-13T10:38:49.721Z,17.47
2018-01-13T10:41:17.207Z,15.33
2018-01-13T10:43:44.675Z,15.60
2018-01-13T10:46:12.144Z,14.87
2018-01-13T10:48:39.623Z,16.47
2018-01-13T10:51:07.085Z,14.97
2018-01-13T10:53:35.456Z,15.63
2018-01-13T10:56:02.927Z,17.20
2018-01-13T10:58:30.394Z,18.00
2018-01-13T11:00:57.848Z,19.63
2018-01-13T11:03:25.329Z,19.80
2018-01-13T11:05:52.787Z,16.57
2018-01-13T11:08:20.255Z,15.77
2018-01-13T11:10:47.706Z,15.80
2018-01-13T11:13:15.178Z,13.80
2018-01-13T11:15:42.636Z,15.33
2018-01-13T11:18:10.097Z,14.17
2018-01-13T11:20:37.570Z,16.60
2018-01-13T11:23:05.030Z,15.97
2018-01-13T11:25:32.498Z,15.43
2018-01-13T11:27:59.948Z,16.07
2018-01-13T11:30:27.449Z,15.63
2018-01-13T11:32:54.901Z,13.63
2018-01-13T11:35:22.405Z,13.77
2018-01-13T11:37:49.969Z,14.70
2018-01-13T11:40:17.458Z,15.13
2018-01-13T11:42:44.928Z,15.50
2018-01-13T11:45:12.419Z,16.20
2018-01-13T11:47:39.866Z,14.73
2018-01-13T11:50:07.387Z,15.37
2018-01-13T11:52:34.839Z,14.87
2018-01-13T11:55:02.313Z,14.07
2018-01-13T11:57:29.779Z,14.30
2018-01-13T11:59:57.876Z,14.50
2018-01-13T12:02:25.324Z,14.67
2018-01-13T12:04:52.803Z,14.30
2018-01-13T12:07:20.290Z,13.20
2018-01-13T12:09:47.908Z,13.63
2018-01-13T12:12:15.354Z,14.80
2018-01-13T12:14:42.824Z,14.13
2018-01-13T12:17:10.280Z,13.63
2018-01-13T12:19:38.439Z,14.33
2018-01-13T12:22:05.895Z,14.53
2018-01-13T12:24:33.378Z,14.70
2018-01-13T12:27:00.838Z,21.90
2018-01-13T12:29:28.339Z,17.73
2018-01-13T12:31:55.794Z,15.37
2018-01-13T12:34:23.305Z,12.87
2018-01-13T12:36:50.760Z,12.70
2018-01-13T12:39:18.298Z,14.20
2018-01-13T12:41:45.864Z,13.47
2018-01-13T12:44:13.359Z,15.50
2018-01-13T12:46:40.873Z,12.60
2018-01-13T12:49:08.370Z,12.63
2018-01-13T12:51:35.838Z,12.47
2018-01-13T12:54:03.295Z,14.73
2018-01-13T12:56:30.762Z,12.53
2018-01-13T12:58:58.235Z,13.07
2018-01-13T13:01:25.721Z,14.07
2018-01-13T13:03:53.218Z,14.30
2018-01-13T13:06:20.675Z,14.97
2018-01-13T13:08:48.144Z,13.80
2018-01-13T13:11:15.609Z,14.20
2018-01-13T13:13:43.084Z,14.40
2018-01-13T13:16:10.548Z,13.50
2018-01-13T13:18:38.051Z,14.27
2018-01-13T13:21:05.498Z,13.30
2018-01-13T13:23:33.023Z,13.63
2018-01-13T13:26:00.479Z,14.13
2018-01-13T13:28:27.956Z,14.53
2018-01-13T13:30:55.442Z,14.30
2018-01-13T13:33:23.157Z,14.90
2018-01-13T13:35:50.681Z,13.97
2018-01-13T13:38:18.137Z,18.07
2018-01-13T13:40:45.627Z,17.73
2018-01-13T13:43:13.181Z,18.77
2018-01-13T13:45:40.682Z,16.47
2018-01-13T13:48:08.155Z,13.80
2018-01-13T13:50:35.603Z,15.33
2018-01-13T13:53:03.071Z,14.60
2018-01-13T13:55:30.522Z,14.00
2018-01-13T13:57:57.996Z,14.50
2018-01-13T14:00:25.455Z,16.63
2018-01-13T14:02:52.960Z,15.27
2018-01-13T14:05:20.474Z,13.93
2018-01-13T14:07:47.898Z,13.97
2018-01-13T14:10:15.368Z,15.10
2018-01-13T14:12:42.825Z,18.60
2018-01-13T14:15:10.377Z,17.87
2018-01-13T14:17:37.816Z,15.50
2018-01-13T14:20:05.286Z,14.37
2018-01-13T14:22:32.778Z,13.40
2018-01-13T14:25:00.234Z,16.17
2018-01-13T14:27:27.726Z,14.23
2018-01-13T14:29:55.218Z,15.90
2018-01-13T14:32:22.690Z,13.47
2018-01-13T14:34:50.170Z,14.63
2018-01-13T14:37:17.652Z,14.00
2018-01-13T14:39:45.195Z,17.03
2018-01-13T14:42:12.666Z,15.53
2018-01-13T14:44:40.129Z,14.93
2018-01-13T14:47:07.618Z,15.60
2018-01-13T14:49:35.193Z,13.77
2018-01-13T14:52:02.604Z,14.80
2018-01-13T14:54:30.091Z,14.57
2018-01-13T14:56:57.567Z,13.83
2018-01-13T14:59:25.072Z,17.93
2018-01-13T15:01:52.566Z,15.50
2018-01-13T15:04:20.022Z,17.03
2018-01-13T15:06:47.495Z,15.63
2018-01-13T15:09:14.949Z,16.13
2018-01-13T15:11:42.441Z,17.23
2018-01-13T15:14:09.890Z,20.83
2018-01-13T15:16:37.432Z,22.33
2018-01-13T15:19:04.917Z,18.63
2018-01-13T15:21:32.382Z,17.67
2018-01-13T15:23:59.847Z,17.30
2018-01-13T15:26:27.309Z,16.70
2018-01-13T15:28:54.763Z,15.93
2018-01-13T15:31:22.224Z,13.90
2018-01-13T15:33:49.669Z,16.80
2018-01-13T15:36:17.144Z,15.00
2018-01-13T15:38:44.654Z,16.27
2018-01-13T15:41:12.134Z,15.40
2018-01-13T15:43:39.633Z,16.23
2018-01-13T15:46:07.079Z,17.50
2018-01-13T15:48:34.537Z,16.60
2018-01-13T15:51:01.999Z,17.23
2018-01-13T15:53:29.481Z,16.70
2018-01-13T15:55:56.937Z,15.30
2018-01-13T15:58:24.413Z,18.87
2018-01-13T16:00:51.889Z,19.10
2018-01-13T16:03:19.342Z,16.93
2018-01-13T16:05:46.804Z,17.13
2018-01-13T16:08:14.321Z,16.93
2018-01-13T16:10:41.780Z,16.63
2018-01-13T16:13:09.236Z,16.97
2018-01-13T16:15:36.720Z,17.10
2018-01-13T16:18:04.167Z,16.37
2018-01-13T16:20:31.640Z,17.57
2018-01-13T16:22:59.118Z,18.30
2018-01-13T16:25:26.565Z,18.60
2018-01-13T16:27:54.056Z,17.37
2018-01-13T16:30:21.513Z,18.53
2018-01-13T16:32:48.974Z,18.20
2018-01-13T16:35:16.423Z,17.27
2018-01-13T16:37:43.911Z,17.97
2018-01-13T16:40:11.391Z,18.70
2018-01-13T16:42:38.857Z,18.50
2018-01-13T16:45:06.332Z,16.90
2018-01-13T16:47:33.789Z,16.13
2018-01-13T16:50:01.267Z,15.50
2018-01-13T16:52:28.734Z,16.50
2018-01-13T16:54:56.197Z,17.63
2018-01-13T16:57:23.698Z,15.77
2018-01-13T16:59:51.193Z,19.77
2018-01-13T17:02:18.664Z,18.50
2018-01-13T17:04:46.153Z,19.60
2018-01-13T17:07:13.602Z,16.80
2018-01-13T17:09:41.091Z,17.23
2018-01-13T17:12:08.551Z,15.47
2018-01-13T17:14:36.018Z,15.43
2018-01-13T17:17:03.483Z,16.40
2018-01-13T17:19:31.467Z,16.63
2018-01-13T17:21:58.950Z,14.87
2018-01-13T17:24:26.450Z,15.27
2018-01-13T17:26:53.909Z,15.50
2018-01-13T17:29:21.474Z,14.90
2018-01-13T17:31:48.948Z,14.77
2018-01-13T17:34:16.456Z,13.83
2018-01-13T17:36:43.943Z,17.03
2018-01-13T17:39:11.409Z,15.00
2018-01-13T17:41:38.875Z,15.87
2018-01-13T17:44:06.342Z,15.67
2018-01-13T17:46:33.818Z,14.23
2018-01-13T17:49:01.305Z,15.70
2018-01-13T17:51:28.772Z,16.77
2018-01-13T17:53:56.334Z,15.93
2018-01-13T17:56:23.794Z,16.50
2018-01-13T17:58:51.270Z,15.73
2018-01-13T18:01:18.765Z,18.30
2018-01-13T18:03:46.270Z,19.83
2018-01-13T18:06:13.767Z,18.73
2018-01-13T18:08:41.265Z,16.47
2018-01-13T18:11:08.746Z,15.70
2018-01-13T18:13:36.253Z,20.67
2018-01-13T18:16:03.735Z,18.43
2018-01-13T18:18:31.388Z,16.27
2018-01-13T18:20:58.848Z,15.83
2018-01-13T18:23:26.319Z,16.07
2018-01-13T18:25:53.803Z,15.97
2018-01-13T18:28:21.286Z,16.33
2018-01-13T18:30:48.769Z,15.63
2018-01-13T18:33:16.239Z,13.87
2018-01-13T18:35:43.690Z,15.50
2018-01-13T18:38:11.154Z,15.80
2018-01-13T18:40:38.598Z,15.10
2018-01-13T18:43:06.067Z,13.73
2018-01-13T18:45:33.551Z,12.60
2018-01-13T18:48:01.011Z,16.57
2018-01-13T18:50:28.485Z,15.53
2018-01-13T18:52:55.955Z,18.00
2018-01-13T18:55:23.493Z,15.53
2018-01-13T18:57:51.007Z,14.17
2018-01-13T19:00:18.553Z,15.00
2018-01-13T19:02:46.031Z,14.40
2018-01-13T19:05:13.478Z,14.40
2018-01-13T19:07:40.951Z,15.30
2018-01-13T19:10:08.401Z,15.60
2018-01-13T19:12:35.872Z,13.10
2018-01-13T19:15:03.410Z,13.53
2018-01-13T19:17:30.904Z,14.40
2018-01-13T19:19:58.379Z,13.77
2018-01-13T19:22:25.828Z,13.20
2018-01-13T19:24:53.307Z,12.67
2018-01-13T19:27:20.755Z,13.33
2018-01-13T19:29:48.223Z,13.00
2018-01-13T19:32:15.679Z,15.00
2018-01-13T19:34:43.231Z,13.90
2018-01-13T19:37:10.754Z,13.13
2018-01-13T19:39:38.244Z,14.10
2018-01-13T19:42:05.734Z,13.53
2018-01-13T19:44:33.187Z,11.60
2018-01-13T19:47:00.661Z,11.77
2018-01-13T19:49:28.126Z,14.10
2018-01-13T19:51:55.598Z,14.70
2018-01-13T19:54:23.043Z,13.00
2018-01-13T19:56:50.521Z,12.33
2018-01-13T19:59:17.979Z,11.87
2018-01-13T20:01:45.479Z,11.30
2018-01-13T20:04:12.939Z,12.97
2018-01-13T20:06:40.408Z,11.93
2018-01-13T20:09:07.867Z,12.87
2018-01-13T20:11:35.538Z,12.47
2018-01-13T20:14:03.014Z,12.60
2018-01-13T20:16:30.517Z,13.10
2018-01-13T20:18:57.978Z,12.77
2018-01-13T20:21:25.451Z,13.30
2018-01-13T20:23:52.904Z,11.33
2018-01-13T20:26:20.375Z,10.47
2018-01-13T20:28:47.865Z,10.80
2018-01-13T20:31:15.394Z,10.60
2018-01-13T20:33:42.863Z,10.83
2018-01-13T20:36:10.408Z,10.40
2018-01-13T20:38:37.886Z,11.60
2018-01-13T20:41:05.342Z,11.73
2018-01-13T20:43:32.827Z,14.10
2018-01-13T20:46:00.299Z,11.80
2018-01-13T20:48:27.774Z,11.10
2018-01-13T20:50:55.238Z,11.60
2018-01-13T20:53:22.690Z,12.57
2018-01-13T20:55:50.157Z,10.47
2018-01-13T20:58:17.611Z,10.40
2018-01-13T21:00:45.094Z,10.80
2018-01-13T21:03:12.572Z,11.07
2018-01-13T21:05:40.094Z,11.67
2018-01-13T21:08:07.563Z,10.80
2018-01-13T21:10:35.051Z,12.03
2018-01-13T21:13:02.495Z,11.93
2018-01-13T21:15:29.955Z,13.13
2018-01-13T21:17:57.398Z,13.03
2018-01-13T21:20:24.875Z,11.90
2018-01-13T21:22:52.354Z,12.40
2018-01-13T21:25:19.823Z,10.80
2018-01-13T21:27:47.277Z,12.00
2018-01-13T21:30:14.740Z,10.53
2018-01-13T21:32:42.217Z,12.00
2018-01-13T21:35:09.685Z,13.77
2018-01-13T21:37:37.135Z,10.93
2018-01-13T21:40:04.684Z,11.13
2018-01-13T21:42:32.235Z,11.87
2018-01-13T21:44:59.730Z,11.20
2018-01-13T21:47:27.186Z,11.23
2018-01-13T21:49:54.660Z,11.90
2018-01-13T21:52:22.119Z,13.40
2018-01-13T21:54:49.631Z,11.43
2018-01-13T21:57:17.121Z,12.83
2018-01-13T21:59:44.589Z,12.50
2018-01-13T22:02:12.060Z,10.80
2018-01-13T22:04:39.543Z,11.73
2018-01-13T22:07:07.012Z,11.40
2018-01-13T22:09:34.522Z,11.20
2018-01-13T22:12:02.013Z,10.10
2018-01-13T22:14:29.474Z,12.67
2018-01-13T22:16:56.942Z,11.50
2018-01-13T22:19:24.412Z,10.83
2018-01-13T22:21:51.899Z,11.07
2018-01-13T22:24:19.371Z,12.47
2018-01-13T22:26:46.835Z,11.60
2018-01-13T22:29:14.335Z,12.07
2018-01-13T22:31:41.794Z,11.13
2018-01-13T22:34:09.751Z,11.37
2018-01-13T22:36:37.206Z,12.00
2018-01-13T22:39:04.663Z,9.67
2018-01-13T22:41:32.121Z,12.03
2018-01-13T22:43:59.614Z,12.00
2018-01-13T22:46:27.082Z,10.90
2018-01-13T22:48:54.567Z,11.63
2018-01-13T22:51:22.014Z,11.63
2018-01-13T22:53:49.482Z,12.50
2018-01-13T22:56:16.930Z,11.97
2018-01-13T22:58:44.406Z,11.33
2018-01-13T23:01:11.871Z,12.10
2018-01-13T23:03:39.356Z,11.37
2018-01-13T23:06:06.818Z,12.30
2018-01-13T23:08:34.285Z,11.00
2018-01-13T23:11:01.766Z,11.60
2018-01-13T23:13:29.233Z,10.73
2018-01-13T23:15:56.678Z,11.27
2018-01-13T23:18:24.240Z,11.27
2018-01-13T23:20:51.719Z,11.90
2018-01-13T23:23:19.168Z,11.80
2018-01-13T23:25:46.635Z,11.73
2018-01-13T23:28:14.184Z,10.70
2018-01-13T23:30:41.666Z,12.50
2018-01-13T23:33:09.123Z,10.70
2018-01-13T23:35:36.591Z,10.60
2018-01-13T23:38:04.055Z,10.47
2018-01-13T23:40:31.525Z,10.70
2018-01-13T23:42:58.979Z,9.37
2018-01-13T23:45:26.460Z,11.53
2018-01-13T23:47:53.911Z,9.97
2018-01-13T23:50:21.403Z,10.33
2018-01-13T23:52:48.849Z,10.80
2018-01-13T23:55:16.313Z,9.47
2018-01-13T23:57:43.790Z,9.40
